createdAt,value
2022-12-04T00:03:33.882Z,8.17
2022-12-04T00:08:35.356Z,8.14
2022-12-04T00:13:36.899Z,8.28
2022-12-04T00:18:38.370Z,8.22
2022-12-04T00:23:40.150Z,7.99
2022-12-04T00:28:41.944Z,8.47
2022-12-04T00:33:43.521Z,8.45
2022-12-04T00:38:44.979Z,7.51
2022-12-04T00:43:46.440Z,7.32
2022-12-04T00:48:47.897Z,7.53
2022-12-04T00:53:50.006Z,7.61
2022-12-04T00:58:52.843Z,7.98
2022-12-04T01:03:54.475Z,7.74
2022-12-04T01:08:56.087Z,6.48
2022-12-04T01:13:57.541Z,6.69
2022-12-04T01:18:59.227Z,7.52
2022-12-04T01:24:00.707Z,6.66
2022-12-04T01:29:02.156Z,7.36
2022-12-04T01:34:03.718Z,7.45
2022-12-04T01:39:05.207Z,7.23
2022-12-04T01:44:19.483Z,7.45
2022-12-04T01:49:34.218Z,7.46
2022-12-04T01:54:38.952Z,7.13
2022-12-04T01:59:42.679Z,6.08
2022-12-04T02:04:44.767Z,6.47
2022-12-04T02:09:53.780Z,6.85
2022-12-04T02:15:04.044Z,7.10
2022-12-04T02:20:20.342Z,7.02
2022-12-04T02:25:40.881Z,6.53
2022-12-04T02:30:42.511Z,6.64
2022-12-04T02:35:49.366Z,6.87
2022-12-04T02:40:56.568Z,6.82
2022-12-04T02:46:00.965Z,6.81
2022-12-04T02:51:02.480Z,6.50
2022-12-04T02:56:09.578Z,6.12
2022-12-04T03:01:20.935Z,6.28
2022-12-04T03:06:22.530Z,6.93
2022-12-04T03:11:25.351Z,6.36
2022-12-04T03:16:31.824Z,6.58
2022-12-04T03:21:34.904Z,6.63
2022-12-04T03:26:38.266Z,6.60
2022-12-04T03:31:58.033Z,6.62
2022-12-04T03:37:03.383Z,5.60
2022-12-04T03:42:12.588Z,5.95
2022-12-04T03:47:18.874Z,6.11
2022-12-04T03:52:35.156Z,5.86
2022-12-04T03:57:41.520Z,5.74
2022-12-04T04:03:05.242Z,6.29
2022-12-04T04:08:26.191Z,6.45
2022-12-04T04:14:05.012Z,6.02
2022-12-04T04:19:25.685Z,6.84
2022-12-04T04:24:41.304Z,6.53
2022-12-04T04:29:46.686Z,6.58
2022-12-04T04:35:00.661Z,6.74
2022-12-04T04:40:05.027Z,7.07
2022-12-04T04:45:09.445Z,7.18
2022-12-04T04:50:11.252Z,6.57
2022-12-04T04:55:12.953Z,7.02
2022-12-04T05:00:15.952Z,6.97
2022-12-04T05:05:17.828Z,7.24
2022-12-04T05:10:19.286Z,6.99
2022-12-04T05:15:20.739Z,7.35
2022-12-04T05:20:22.199Z,7.43
2022-12-04T05:25:23.659Z,7.69
2022-12-04T05:30:25.123Z,7.41
2022-12-04T05:35:26.583Z,7.12
2022-12-04T05:40:28.046Z,7.61
2022-12-04T05:45:29.500Z,7.84
2022-12-04T05:50:30.951Z,7.83
2022-12-04T05:55:32.401Z,7.77
2022-12-04T06:00:33.871Z,7.83
2022-12-04T06:05:35.329Z,7.68
2022-12-04T06:10:36.790Z,7.97
2022-12-04T06:15:39.061Z,7.67
2022-12-04T06:20:40.575Z,7.38
2022-12-04T06:25:42.047Z,8.05
2022-12-04T06:30:43.512Z,7.88
2022-12-04T06:35:44.958Z,8.12
2022-12-04T06:40:46.408Z,8.06
2022-12-04T06:45:47.937Z,7.94
2022-12-04T06:50:49.421Z,8.24
2022-12-04T06:55:50.870Z,7.84
2022-12-04T07:00:52.706Z,8.25
2022-12-04T07:05:54.223Z,7.89
2022-12-04T07:10:59.185Z,7.60
2022-12-04T07:16:04.996Z,8.13
2022-12-04T07:21:10.636Z,8.09
2022-12-04T07:26:12.946Z,7.93
2022-12-04T07:31:16.137Z,8.12
2022-12-04T07:36:19.480Z,7.94
2022-12-04T07:41:20.951Z,8.42
2022-12-04T07:46:24.631Z,8.34
2022-12-04T07:51:27.710Z,8.36
2022-12-04T07:56:29.195Z,8.42
2022-12-04T08:01:30.952Z,8.73
2022-12-04T08:06:33.058Z,8.14
2022-12-04T08:11:34.632Z,8.54
2022-12-04T08:16:36.199Z,8.47
2022-12-04T08:21:37.699Z,8.13
2022-12-04T08:26:39.146Z,8.58
2022-12-04T08:31:40.681Z,8.47
2022-12-04T08:36:42.243Z,8.26
2022-12-04T08:41:43.710Z,8.26
2022-12-04T08:46:45.262Z,8.53
2022-12-04T08:51:46.722Z,8.46
2022-12-04T08:56:48.177Z,8.39
2022-12-04T09:01:51.673Z,8.28
2022-12-04T09:06:53.229Z,8.48
2022-12-04T09:11:54.708Z,8.89
2022-12-04T09:16:56.170Z,8.36
2022-12-04T09:21:57.720Z,8.63
2022-12-04T09:26:59.171Z,8.57
2022-12-04T09:32:00.639Z,8.72
2022-12-04T09:37:02.185Z,8.64
2022-12-04T09:42:21.970Z,8.60
2022-12-04T09:47:28.329Z,8.62
2022-12-04T09:52:44.464Z,8.06
2022-12-04T09:57:46.889Z,8.76
2022-12-04T10:02:55.128Z,9.16
2022-12-04T10:08:06.319Z,8.93
2022-12-04T10:13:44.354Z,8.92
2022-12-04T10:19:33.420Z,8.84
2022-12-04T10:24:43.558Z,8.54
2022-12-04T10:29:46.101Z,8.65
2022-12-04T10:34:49.429Z,8.67
2022-12-04T10:39:55.020Z,8.97
2022-12-04T10:44:56.680Z,8.62
2022-12-04T10:50:03.821Z,9.02
2022-12-04T10:55:05.529Z,9.09
2022-12-04T11:00:26.843Z,8.06
2022-12-04T11:05:51.935Z,9.18
2022-12-04T11:11:01.391Z,9.19
2022-12-04T11:16:03.107Z,9.46
2022-12-04T11:21:19.338Z,9.46
2022-12-04T11:26:29.200Z,9.39
2022-12-04T11:31:31.296Z,8.13
2022-12-04T11:36:37.840Z,8.90
2022-12-04T11:41:39.687Z,8.72
2022-12-04T11:46:51.899Z,9.21
2022-12-04T11:52:00.211Z,9.20
2022-12-04T11:57:12.128Z,9.59
2022-12-04T12:02:45.927Z,9.09
2022-12-04T12:08:24.466Z,9.40
2022-12-04T12:13:34.969Z,9.34
2022-12-04T12:19:08.591Z,9.82
2022-12-04T12:24:24.451Z,9.13
2022-12-04T12:29:47.251Z,8.99
2022-12-04T12:34:48.723Z,9.68
2022-12-04T12:40:15.731Z,8.44
2022-12-04T12:45:26.427Z,8.95
2022-12-04T12:50:58.192Z,8.79
2022-12-04T12:56:13.024Z,9.64
2022-12-04T13:01:24.773Z,9.68
2022-12-04T13:06:29.312Z,8.21
2022-12-04T13:11:30.905Z,8.13
2022-12-04T13:16:41.870Z,9.05
2022-12-04T13:22:04.812Z,9.10
2022-12-04T13:27:43.541Z,9.01
2022-12-04T13:32:50.702Z,8.35
2022-12-04T13:38:27.304Z,9.16
2022-12-04T13:43:31.906Z,9.30
2022-12-04T13:48:41.721Z,9.44
2022-12-04T13:53:43.332Z,8.42
2022-12-04T13:58:44.802Z,8.70
2022-12-04T14:03:48.137Z,8.64
2022-12-04T14:08:57.320Z,9.01
2022-12-04T14:14:03.496Z,8.70
2022-12-04T14:19:08.109Z,9.26
2022-12-04T14:24:27.917Z,9.62
2022-12-04T14:29:41.914Z,8.90
2022-12-04T14:34:43.371Z,8.35
2022-12-04T14:39:45.434Z,9.25
2022-12-04T14:44:46.910Z,8.99
2022-12-04T14:50:11.779Z,8.82
2022-12-04T14:55:31.866Z,8.64
2022-12-04T15:00:33.329Z,8.37
2022-12-04T15:05:34.780Z,8.53
2022-12-04T15:10:54.929Z,8.29
2022-12-04T15:15:56.560Z,8.81
2022-12-04T15:20:58.682Z,8.60
2022-12-04T15:26:05.556Z,8.00
2022-12-04T15:31:10.140Z,8.15
2022-12-04T15:36:36.791Z,7.90
2022-12-04T15:41:38.279Z,7.85
2022-12-04T15:46:39.879Z,7.35
2022-12-04T15:51:41.389Z,7.12
2022-12-04T15:56:42.955Z,7.03
2022-12-04T16:01:44.496Z,7.82
2022-12-04T16:06:47.405Z,6.90
2022-12-04T16:11:57.729Z,7.06
2022-12-04T16:17:05.531Z,7.25
2022-12-04T16:22:20.380Z,6.98
2022-12-04T16:27:23.183Z,6.99
2022-12-04T16:32:27.568Z,7.02
2022-12-04T16:37:31.610Z,6.82
2022-12-04T16:42:34.825Z,7.48
2022-12-04T16:47:36.293Z,7.20
2022-12-04T16:52:37.755Z,6.96
2022-12-04T16:57:39.215Z,6.96
2022-12-04T17:02:40.688Z,7.12
2022-12-04T17:07:42.171Z,7.24
2022-12-04T17:12:43.782Z,7.21
2022-12-04T17:17:45.249Z,6.52
2022-12-04T17:22:46.705Z,7.36
2022-12-04T17:27:48.204Z,6.99
2022-12-04T17:32:49.699Z,7.25
2022-12-04T17:37:51.182Z,7.40
2022-12-04T17:42:52.649Z,7.07
2022-12-04T17:47:54.116Z,7.40
2022-12-04T17:52:55.612Z,7.23
2022-12-04T17:57:57.082Z,6.70
2022-12-04T18:02:58.590Z,6.73
2022-12-04T18:08:00.202Z,7.12
2022-12-04T18:13:01.748Z,7.23
2022-12-04T18:18:03.207Z,6.85
2022-12-04T18:23:04.703Z,6.79
2022-12-04T18:28:06.208Z,6.92
2022-12-04T18:33:07.663Z,6.79
2022-12-04T18:38:09.151Z,7.09
2022-12-04T18:43:15.155Z,7.10
2022-12-04T18:48:16.680Z,7.50
2022-12-04T18:53:18.768Z,7.52
2022-12-04T18:58:21.456Z,7.07
2022-12-04T19:03:22.906Z,7.46
2022-12-04T19:08:27.337Z,7.09
2022-12-04T19:13:33.246Z,7.01
2022-12-04T19:18:34.886Z,7.14
2022-12-04T19:23:36.340Z,7.18
2022-12-04T19:28:38.044Z,6.82
2022-12-04T19:33:39.504Z,6.86
2022-12-04T19:38:41.038Z,7.06
2022-12-04T19:43:44.640Z,7.07
2022-12-04T19:48:47.280Z,7.47
2022-12-04T19:53:48.807Z,6.82
2022-12-04T19:58:50.970Z,7.06
2022-12-04T20:03:53.075Z,6.83
2022-12-04T20:08:59.036Z,6.94
2022-12-04T20:14:01.027Z,7.12
2022-12-04T20:19:03.287Z,6.84
2022-12-04T20:24:05.596Z,6.72
2022-12-04T20:29:07.975Z,7.40
2022-12-04T20:34:14.294Z,7.53
2022-12-04T20:39:18.658Z,7.72
2022-12-04T20:44:20.483Z,7.96
2022-12-04T20:49:22.654Z,7.74
2022-12-04T20:54:24.311Z,7.65
2022-12-04T20:59:25.832Z,6.90
2022-12-04T21:04:27.312Z,7.17
2022-12-04T21:09:28.948Z,7.28
2022-12-04T21:14:50.517Z,7.63
2022-12-04T21:19:52.554Z,7.35
2022-12-04T21:24:54.020Z,7.16
2022-12-04T21:29:56.093Z,7.10
2022-12-04T21:34:57.811Z,7.74
2022-12-04T21:39:59.809Z,6.93
2022-12-04T21:45:02.239Z,7.32
2022-12-04T21:50:04.564Z,7.62
2022-12-04T21:55:06.123Z,7.13
2022-12-04T22:00:08.095Z,7.05
2022-12-04T22:05:09.551Z,7.10
2022-12-04T22:10:11.242Z,6.99
2022-12-04T22:15:12.747Z,7.15
2022-12-04T22:20:14.205Z,7.38
2022-12-04T22:25:15.883Z,7.76
2022-12-04T22:30:17.387Z,7.22
2022-12-04T22:35:18.933Z,7.13
2022-12-04T22:40:20.383Z,7.17
2022-12-04T22:45:21.888Z,7.23
2022-12-04T22:50:23.331Z,6.74
2022-12-04T22:55:24.784Z,7.32
2022-12-04T23:00:26.228Z,7.42
2022-12-04T23:05:27.741Z,7.09
2022-12-04T23:10:29.253Z,7.41
2022-12-04T23:15:30.849Z,7.12
2022-12-04T23:20:32.433Z,7.15
2022-12-04T23:25:38.633Z,6.73
2022-12-04T23:30:45.280Z,7.24
2022-12-04T23:35:53.919Z,7.50
2022-12-04T23:41:05.604Z,7.24
2022-12-04T23:46:11.019Z,6.81
2022-12-04T23:51:14.375Z,6.87
2022-12-04T23:56:18.089Z,7.26
